createdAt,value
2017-11-19T00:00:09.352Z,4.60
2017-11-19T00:02:36.800Z,4.50
2017-11-19T00:05:04.230Z,4.50
2017-11-19T00:07:32.741Z,4.40
2017-11-19T00:10:00.181Z,4.40
2017-11-19T00:12:27.609Z,4.40
2017-11-19T00:14:55.435Z,4.30
2017-11-19T00:17:22.867Z,4.30
2017-11-19T00:19:50.293Z,4.20
2017-11-19T00:22:18.125Z,4.20
2017-11-19T00:24:45.551Z,4.20
2017-11-19T00:27:12.985Z,4.20
2017-11-19T00:29:40.791Z,4.10
2017-11-19T00:32:08.209Z,4.10
2017-11-19T00:34:35.637Z,4.10
2017-11-19T00:37:03.471Z,4.00
2017-11-19T00:39:30.886Z,4.00
2017-11-19T00:41:58.592Z,4.00
2017-11-19T00:44:26.114Z,4.00
2017-11-19T00:46:53.545Z,4.00
2017-11-19T00:49:20.981Z,4.00
2017-11-19T00:51:48.825Z,4.00
2017-11-19T00:54:16.258Z,4.00
2017-11-19T00:56:43.681Z,4.00
2017-11-19T00:59:11.151Z,4.00
2017-11-19T01:01:38.571Z,4.00
2017-11-19T01:04:06.396Z,4.10
2017-11-19T01:06:34.029Z,4.10
2017-11-19T01:09:01.470Z,4.10
2017-11-19T01:11:28.893Z,4.00
2017-11-19T01:13:56.721Z,4.00
2017-11-19T01:16:24.141Z,4.00
2017-11-19T01:18:51.574Z,4.00
2017-11-19T01:21:19.518Z,4.00
2017-11-19T01:23:46.943Z,4.10
2017-11-19T01:26:14.385Z,4.10
2017-11-19T01:28:41.813Z,4.10
2017-11-19T01:31:09.268Z,4.00
2017-11-19T01:33:36.686Z,4.10
2017-11-19T01:36:04.120Z,4.10
2017-11-19T01:38:31.660Z,4.20
2017-11-19T01:40:59.089Z,4.20
2017-11-19T01:43:26.893Z,4.00
2017-11-19T01:45:54.333Z,4.00
2017-11-19T01:48:21.789Z,4.00
2017-11-19T01:50:49.202Z,4.00
2017-11-19T01:53:17.024Z,4.00
2017-11-19T01:55:44.480Z,4.10
2017-11-19T01:58:11.905Z,4.10
2017-11-19T02:00:39.337Z,4.10
2017-11-19T02:03:07.183Z,4.10
2017-11-19T02:05:34.601Z,4.10
2017-11-19T02:08:02.043Z,4.10
2017-11-19T02:10:29.592Z,4.10
2017-11-19T02:12:57.011Z,4.10
2017-11-19T02:15:24.831Z,4.10
2017-11-19T02:17:52.588Z,4.10
2017-11-19T02:20:20.009Z,4.20
2017-11-19T02:22:47.441Z,4.30
2017-11-19T02:25:14.900Z,4.20
2017-11-19T02:27:42.709Z,4.00
2017-11-19T02:30:10.141Z,4.00
2017-11-19T02:32:37.597Z,4.20
2017-11-19T02:35:05.023Z,4.20
2017-11-19T02:37:32.858Z,4.20
2017-11-19T02:40:00.518Z,4.20
2017-11-19T02:42:27.953Z,4.10
2017-11-19T02:44:55.383Z,4.10
2017-11-19T02:47:22.817Z,4.10
2017-11-19T02:49:50.641Z,4.20
2017-11-19T02:52:18.071Z,4.20
2017-11-19T02:54:45.853Z,4.20
2017-11-19T02:57:13.311Z,4.30
2017-11-19T02:59:40.739Z,4.30
2017-11-19T03:02:08.158Z,4.30
2017-11-19T03:04:35.977Z,4.30
2017-11-19T03:07:03.424Z,4.30
2017-11-19T03:09:30.846Z,4.20
2017-11-19T03:11:58.274Z,4.20
2017-11-19T03:14:25.702Z,4.20
2017-11-19T03:16:53.129Z,4.20
2017-11-19T03:19:20.602Z,4.20
2017-11-19T03:21:48.026Z,4.20
2017-11-19T03:24:15.459Z,4.20
2017-11-19T03:26:42.894Z,4.20
2017-11-19T03:29:10.321Z,4.30
2017-11-19T03:31:37.747Z,4.30
2017-11-19T03:34:05.194Z,4.30
2017-11-19T03:36:32.622Z,4.30
2017-11-19T03:39:00.042Z,4.40
2017-11-19T03:41:27.806Z,4.30
2017-11-19T03:43:55.222Z,4.30
2017-11-19T03:46:22.642Z,4.30
2017-11-19T03:48:50.105Z,4.30
2017-11-19T03:51:17.533Z,4.40
2017-11-19T03:53:44.953Z,4.40
2017-11-19T03:56:12.399Z,4.50
2017-11-19T03:58:39.818Z,4.50
2017-11-19T04:01:07.245Z,4.50
2017-11-19T04:03:34.996Z,4.50
2017-11-19T04:06:02.421Z,4.50
2017-11-19T04:08:29.839Z,4.50
2017-11-19T04:10:57.268Z,4.50
2017-11-19T04:13:24.695Z,4.50
2017-11-19T04:15:52.238Z,4.60
2017-11-19T04:18:19.673Z,4.60
2017-11-19T04:20:47.502Z,4.60
2017-11-19T04:23:14.952Z,4.60
2017-11-19T04:25:42.379Z,4.50
2017-11-19T04:28:09.799Z,4.50
2017-11-19T04:30:37.421Z,4.50
2017-11-19T04:33:04.841Z,4.50
2017-11-19T04:35:32.263Z,4.50
2017-11-19T04:37:59.725Z,4.50
2017-11-19T04:40:27.545Z,4.50
2017-11-19T04:42:54.966Z,4.50
2017-11-19T04:45:22.496Z,4.50
2017-11-19T04:47:50.869Z,4.50
2017-11-19T04:50:18.305Z,4.50
2017-11-19T04:52:45.749Z,4.60
2017-11-19T04:55:13.169Z,4.60
2017-11-19T04:57:40.589Z,4.60
2017-11-19T05:00:08.438Z,4.70
2017-11-19T05:02:35.880Z,4.70
2017-11-19T05:05:03.295Z,4.60
2017-11-19T05:07:30.730Z,4.50
2017-11-19T05:09:58.545Z,4.40
2017-11-19T05:12:25.970Z,4.40
2017-11-19T05:14:53.753Z,4.50
2017-11-19T05:17:21.186Z,4.40
2017-11-19T05:19:48.604Z,4.50
2017-11-19T05:22:16.032Z,4.50
2017-11-19T05:24:43.467Z,4.40
2017-11-19T05:27:10.922Z,4.40
2017-11-19T05:29:38.344Z,4.50
2017-11-19T05:32:06.170Z,4.50
2017-11-19T05:34:33.614Z,4.50
2017-11-19T05:37:01.038Z,4.60
2017-11-19T05:39:28.457Z,4.60
2017-11-19T05:41:56.581Z,4.60
2017-11-19T05:44:24.020Z,4.70
2017-11-19T05:46:51.437Z,4.70
2017-11-19T05:49:19.279Z,4.70
2017-11-19T05:51:46.706Z,4.70
2017-11-19T05:54:14.130Z,4.70
2017-11-19T05:56:41.829Z,4.80
2017-11-19T05:59:09.258Z,4.80
2017-11-19T06:01:36.713Z,4.80
2017-11-19T06:04:04.134Z,4.80
2017-11-19T06:06:31.551Z,4.80
2017-11-19T06:08:58.998Z,4.80
2017-11-19T06:11:26.871Z,4.80
2017-11-19T06:13:54.280Z,4.80
2017-11-19T06:16:21.722Z,4.80
2017-11-19T06:18:49.538Z,4.80
2017-11-19T06:21:16.974Z,4.90
2017-11-19T06:23:44.515Z,4.90
2017-11-19T06:26:11.938Z,4.90
2017-11-19T06:28:40.070Z,4.90
2017-11-19T06:31:07.503Z,4.90
2017-11-19T06:33:34.926Z,4.90
2017-11-19T06:36:02.770Z,4.90
2017-11-19T06:38:30.201Z,4.90
2017-11-19T06:40:57.629Z,5.00
2017-11-19T06:43:25.087Z,5.00
2017-11-19T06:45:52.509Z,5.00
2017-11-19T06:48:20.342Z,5.10
2017-11-19T06:50:47.781Z,5.10
2017-11-19T06:53:15.211Z,5.10
2017-11-19T06:55:42.638Z,5.10
2017-11-19T06:58:10.470Z,5.20
2017-11-19T07:00:37.903Z,5.20
2017-11-19T07:03:05.330Z,5.20
2017-11-19T07:05:32.789Z,5.20
2017-11-19T07:08:00.206Z,5.20
2017-11-19T07:10:27.626Z,5.20
2017-11-19T07:12:55.386Z,5.20
2017-11-19T07:15:22.809Z,5.20
2017-11-19T07:17:50.239Z,5.20
2017-11-19T07:20:17.773Z,5.30
2017-11-19T07:22:45.193Z,5.30
2017-11-19T07:25:12.617Z,5.30
2017-11-19T07:27:40.465Z,5.30
2017-11-19T07:30:07.895Z,5.30
2017-11-19T07:32:35.318Z,5.30
2017-11-19T07:35:02.734Z,5.30
2017-11-19T07:37:30.573Z,5.50
2017-11-19T07:39:58.002Z,5.50
2017-11-19T07:42:25.430Z,5.70
2017-11-19T07:44:52.889Z,5.70
2017-11-19T07:47:20.313Z,5.70
2017-11-19T07:49:47.730Z,5.70
2017-11-19T07:52:15.166Z,5.80
2017-11-19T07:54:42.595Z,5.90
2017-11-19T07:57:10.409Z,5.80
2017-11-19T07:59:37.926Z,5.80
2017-11-19T08:02:05.755Z,5.80
2017-11-19T08:04:33.189Z,5.80
2017-11-19T08:07:00.607Z,5.70
2017-11-19T08:09:28.026Z,5.70
2017-11-19T08:11:56.005Z,5.60
2017-11-19T08:14:24.081Z,5.60
2017-11-19T08:16:51.899Z,5.70
2017-11-19T08:19:19.333Z,5.70
2017-11-19T08:21:46.755Z,5.70
2017-11-19T08:24:14.860Z,5.70
2017-11-19T08:26:42.281Z,5.70
2017-11-19T08:29:09.705Z,5.80
2017-11-19T08:31:37.153Z,5.80
2017-11-19T08:34:04.579Z,5.80
2017-11-19T08:36:31.995Z,5.80
2017-11-19T08:38:59.845Z,5.90
2017-11-19T08:41:27.273Z,5.90
2017-11-19T08:43:54.736Z,5.90
2017-11-19T08:46:22.158Z,6.00
2017-11-19T08:48:49.579Z,6.10
2017-11-19T08:51:17.428Z,6.70
2017-11-19T08:53:45.251Z,6.80
2017-11-19T08:56:12.677Z,6.80
2017-11-19T08:58:40.354Z,6.70
2017-11-19T09:01:07.782Z,6.70
2017-11-19T09:03:35.202Z,6.80
2017-11-19T09:06:02.748Z,6.70
2017-11-19T09:08:30.167Z,6.80
2017-11-19T09:10:57.593Z,6.90
2017-11-19T09:13:25.435Z,6.90
2017-11-19T09:15:52.862Z,6.90
2017-11-19T09:18:20.299Z,7.10
2017-11-19T09:20:47.749Z,7.30
2017-11-19T09:23:15.174Z,7.20
2017-11-19T09:25:42.997Z,7.00
2017-11-19T09:28:10.426Z,7.00
2017-11-19T09:30:37.856Z,7.00
2017-11-19T09:33:05.550Z,7.10
2017-11-19T09:35:32.977Z,7.20
2017-11-19T09:38:00.401Z,7.30
2017-11-19T09:40:27.826Z,7.50
2017-11-19T09:42:55.265Z,7.60
2017-11-19T09:45:22.697Z,8.00
2017-11-19T09:47:50.125Z,8.30
2017-11-19T09:50:17.665Z,8.50
2017-11-19T09:52:45.094Z,8.50
2017-11-19T09:55:12.507Z,8.50
2017-11-19T09:57:40.342Z,9.00
2017-11-19T10:00:07.760Z,8.90
2017-11-19T10:02:35.182Z,9.10
2017-11-19T10:05:02.639Z,9.40
2017-11-19T10:07:30.445Z,9.70
2017-11-19T10:09:57.857Z,9.70
2017-11-19T10:12:25.329Z,10.00
2017-11-19T10:14:52.755Z,9.50
2017-11-19T10:17:20.584Z,9.30
2017-11-19T10:19:48.275Z,9.20
2017-11-19T10:22:16.098Z,9.50
2017-11-19T10:24:43.520Z,9.50
2017-11-19T10:27:11.223Z,9.30
2017-11-19T10:29:38.649Z,10.20
2017-11-19T10:32:06.069Z,9.80
2017-11-19T10:34:33.909Z,11.50
2017-11-19T10:37:01.325Z,11.50
2017-11-19T10:39:28.758Z,13.00
2017-11-19T10:41:56.215Z,13.40
2017-11-19T10:44:23.639Z,11.60
2017-11-19T10:46:51.287Z,12.20
2017-11-19T10:49:18.749Z,13.20
2017-11-19T10:51:46.159Z,13.60
2017-11-19T10:54:13.586Z,12.20
2017-11-19T10:56:41.017Z,12.80
2017-11-19T10:59:08.465Z,13.90
2017-11-19T11:01:35.922Z,13.80
2017-11-19T11:04:03.345Z,14.50
2017-11-19T11:06:30.784Z,14.80
2017-11-19T11:08:58.434Z,15.50
2017-11-19T11:11:25.870Z,15.40
2017-11-19T11:13:53.289Z,15.10
2017-11-19T11:16:20.737Z,14.90
2017-11-19T11:18:48.158Z,14.40
2017-11-19T11:21:15.588Z,13.90
2017-11-19T11:23:43.690Z,14.00
2017-11-19T11:26:11.113Z,14.00
2017-11-19T11:28:38.539Z,13.70
2017-11-19T11:31:05.960Z,14.30
2017-11-19T11:33:33.410Z,14.80
2017-11-19T11:36:00.837Z,15.10
2017-11-19T11:38:28.265Z,14.60
2017-11-19T11:40:56.108Z,13.10
2017-11-19T11:43:23.526Z,13.10
2017-11-19T11:45:50.950Z,12.90
2017-11-19T11:48:18.778Z,13.30
2017-11-19T11:50:46.202Z,13.40
2017-11-19T11:53:13.665Z,12.40
2017-11-19T11:55:41.099Z,11.60
2017-11-19T11:58:08.517Z,10.90
2017-11-19T12:00:35.974Z,10.40
2017-11-19T12:03:03.398Z,10.10
2017-11-19T12:05:30.822Z,9.90
2017-11-19T12:07:58.269Z,9.80
2017-11-19T12:10:25.699Z,9.70
2017-11-19T12:12:53.121Z,9.70
2017-11-19T12:15:20.561Z,9.50
2017-11-19T12:17:47.985Z,9.50
2017-11-19T12:20:15.411Z,9.60
2017-11-19T12:22:43.222Z,9.50
2017-11-19T12:25:10.638Z,10.20
2017-11-19T12:27:38.454Z,13.60
2017-11-19T12:30:06.108Z,13.60
2017-11-19T12:32:33.534Z,13.10
2017-11-19T12:35:00.953Z,13.90
2017-11-19T12:37:28.489Z,13.00
2017-11-19T12:39:55.910Z,11.30
2017-11-19T12:42:23.329Z,10.60
2017-11-19T12:44:51.166Z,10.00
2017-11-19T12:47:18.592Z,10.00
2017-11-19T12:49:46.010Z,9.70
2017-11-19T12:52:13.856Z,9.40
2017-11-19T12:54:41.273Z,9.40
2017-11-19T12:57:08.713Z,9.30
2017-11-19T12:59:36.137Z,9.10
2017-11-19T13:02:03.997Z,9.60
2017-11-19T13:04:31.814Z,9.60
2017-11-19T13:06:59.241Z,9.60
2017-11-19T13:09:27.025Z,9.30
2017-11-19T13:11:54.448Z,9.20
2017-11-19T13:14:21.866Z,9.70
2017-11-19T13:16:49.310Z,10.60
2017-11-19T13:19:16.738Z,10.70
2017-11-19T13:21:44.162Z,10.60
2017-11-19T13:24:12.261Z,11.90
2017-11-19T13:26:39.680Z,11.90
2017-11-19T13:29:07.508Z,12.10
2017-11-19T13:31:35.199Z,12.10
2017-11-19T13:34:03.025Z,11.90
2017-11-19T13:36:30.446Z,11.90
2017-11-19T13:38:57.888Z,11.60
2017-11-19T13:41:25.514Z,11.10
2017-11-19T13:43:52.947Z,10.40
2017-11-19T13:46:20.369Z,10.20
2017-11-19T13:48:47.794Z,9.90
2017-11-19T13:51:15.609Z,9.50
2017-11-19T13:53:43.036Z,9.50
2017-11-19T13:56:10.458Z,9.30
2017-11-19T13:58:37.874Z,9.10
2017-11-19T14:01:05.334Z,9.20
2017-11-19T14:03:32.754Z,9.10
2017-11-19T14:06:00.169Z,9.00
2017-11-19T14:08:27.598Z,8.80
2017-11-19T14:10:55.034Z,8.70
2017-11-19T14:13:22.452Z,8.60
2017-11-19T14:15:50.284Z,8.40
2017-11-19T14:18:17.697Z,8.50
2017-11-19T14:20:45.117Z,8.40
2017-11-19T14:23:12.957Z,8.40
2017-11-19T14:25:40.403Z,8.40
2017-11-19T14:28:07.848Z,8.40
2017-11-19T14:30:35.293Z,8.40
2017-11-19T14:33:02.706Z,8.40
2017-11-19T14:35:30.526Z,8.30
2017-11-19T14:37:57.999Z,8.30
2017-11-19T14:40:25.421Z,8.30
2017-11-19T14:42:52.849Z,8.10
2017-11-19T14:45:20.569Z,8.10
2017-11-19T14:47:47.974Z,8.00
2017-11-19T14:50:15.406Z,8.00
2017-11-19T14:52:43.513Z,8.00
2017-11-19T14:55:10.946Z,8.00
2017-11-19T14:57:38.387Z,8.00
2017-11-19T15:00:06.608Z,8.00
2017-11-19T15:02:34.023Z,8.00
2017-11-19T15:05:01.438Z,8.00
2017-11-19T15:07:28.882Z,7.90
2017-11-19T15:09:56.311Z,7.90
2017-11-19T15:12:23.730Z,7.90
2017-11-19T15:14:51.586Z,7.90
2017-11-19T15:17:19.415Z,7.80
2017-11-19T15:19:46.815Z,7.80
2017-11-19T15:22:14.907Z,7.80
2017-11-19T15:24:42.326Z,7.80
2017-11-19T15:27:10.150Z,7.70
2017-11-19T15:29:37.589Z,7.70
2017-11-19T15:32:05.017Z,7.70
2017-11-19T15:34:32.829Z,7.70
2017-11-19T15:37:00.570Z,7.70
2017-11-19T15:39:27.991Z,7.70
2017-11-19T15:41:55.805Z,7.70
2017-11-19T15:44:23.239Z,7.70
2017-11-19T15:46:50.662Z,7.70
2017-11-19T15:49:18.669Z,7.70
2017-11-19T15:51:46.101Z,7.70
2017-11-19T15:54:13.527Z,7.70
2017-11-19T15:56:41.781Z,7.70
2017-11-19T15:59:09.218Z,7.60
2017-11-19T16:01:36.656Z,7.70
2017-11-19T16:04:04.190Z,7.60
2017-11-19T16:06:31.618Z,7.60
2017-11-19T16:08:59.049Z,7.60
2017-11-19T16:11:26.481Z,7.60
2017-11-19T16:13:53.906Z,7.60
2017-11-19T16:16:22.538Z,7.60
2017-11-19T16:18:50.298Z,7.60
2017-11-19T16:21:17.729Z,7.50
2017-11-19T16:23:45.155Z,7.50
2017-11-19T16:26:12.986Z,7.50
2017-11-19T16:28:40.420Z,7.40
2017-11-19T16:31:07.856Z,7.40
2017-11-19T16:33:35.283Z,7.40
2017-11-19T16:36:03.121Z,7.40
2017-11-19T16:38:30.657Z,7.40
2017-11-19T16:40:58.082Z,7.40
2017-11-19T16:43:25.517Z,7.40
2017-11-19T16:45:52.966Z,7.30
2017-11-19T16:48:20.397Z,7.30
2017-11-19T16:50:47.828Z,7.30
2017-11-19T16:53:15.269Z,7.30
2017-11-19T16:55:42.694Z,7.30
2017-11-19T16:58:10.118Z,7.20
2017-11-19T17:00:37.625Z,7.20
2017-11-19T17:03:05.033Z,7.10
2017-11-19T17:05:32.870Z,7.00
2017-11-19T17:08:00.614Z,7.00
2017-11-19T17:10:28.039Z,7.00
2017-11-19T17:12:55.468Z,6.90
2017-11-19T17:15:23.314Z,6.90
2017-11-19T17:17:51.704Z,6.90
2017-11-19T17:20:19.122Z,6.80
2017-11-19T17:22:46.877Z,6.80
2017-11-19T17:25:14.302Z,6.80
2017-11-19T17:27:41.730Z,6.70
2017-11-19T17:30:09.553Z,6.60
2017-11-19T17:32:36.993Z,6.60
2017-11-19T17:35:04.622Z,6.60
2017-11-19T17:37:32.444Z,6.50
2017-11-19T17:39:59.869Z,6.50
2017-11-19T17:42:27.639Z,6.60
2017-11-19T17:44:55.062Z,6.60
2017-11-19T17:47:22.885Z,6.50
2017-11-19T17:49:50.599Z,6.50
2017-11-19T17:52:18.018Z,6.50
2017-11-19T17:54:45.455Z,6.50
2017-11-19T17:57:12.880Z,6.40
2017-11-19T17:59:40.305Z,6.40
2017-11-19T18:02:08.306Z,6.30
2017-11-19T18:04:35.729Z,6.30
2017-11-19T18:07:03.542Z,6.20
2017-11-19T18:09:30.983Z,6.20
2017-11-19T18:11:58.404Z,6.20
2017-11-19T18:14:25.859Z,6.20
2017-11-19T18:16:53.290Z,6.20
2017-11-19T18:19:21.114Z,6.20
2017-11-19T18:21:48.568Z,6.20
2017-11-19T18:24:15.994Z,6.20
2017-11-19T18:26:43.417Z,6.20
2017-11-19T18:29:11.337Z,6.10
2017-11-19T18:31:38.765Z,6.10
2017-11-19T18:34:06.184Z,6.10
2017-11-19T18:36:34.013Z,6.10
2017-11-19T18:39:01.441Z,6.10
2017-11-19T18:41:28.869Z,6.00
2017-11-19T18:43:56.701Z,6.00
2017-11-19T18:46:24.133Z,6.00
2017-11-19T18:48:51.565Z,6.00
2017-11-19T18:51:19.006Z,5.90
2017-11-19T18:53:46.826Z,5.90
2017-11-19T18:56:14.270Z,6.00
2017-11-19T18:58:41.920Z,5.90
2017-11-19T19:01:10.459Z,5.90
2017-11-19T19:03:37.868Z,5.90
2017-11-19T19:06:05.309Z,5.90
2017-11-19T19:08:32.748Z,5.80
2017-11-19T19:11:00.178Z,5.80
2017-11-19T19:13:28.021Z,5.80
2017-11-19T19:15:55.441Z,5.80
2017-11-19T19:18:22.895Z,5.70
2017-11-19T19:20:50.654Z,5.70
2017-11-19T19:23:18.067Z,5.70
2017-11-19T19:25:45.485Z,5.70
2017-11-19T19:28:13.245Z,5.60
2017-11-19T19:30:40.663Z,5.50
2017-11-19T19:33:08.090Z,5.50
2017-11-19T19:35:35.921Z,5.50
2017-11-19T19:38:03.352Z,5.50
2017-11-19T19:40:30.769Z,5.60
2017-11-19T19:42:58.202Z,5.60
2017-11-19T19:45:25.633Z,5.60
2017-11-19T19:47:53.057Z,5.50
2017-11-19T19:50:20.509Z,5.40
2017-11-19T19:52:47.961Z,5.40
2017-11-19T19:55:15.383Z,5.30
2017-11-19T19:57:43.312Z,5.20
2017-11-19T20:00:10.729Z,5.20
2017-11-19T20:02:38.169Z,5.20
2017-11-19T20:05:06.136Z,5.30
2017-11-19T20:07:33.950Z,5.20
2017-11-19T20:10:01.404Z,5.20
2017-11-19T20:12:28.830Z,5.20
2017-11-19T20:14:56.259Z,5.20
2017-11-19T20:17:24.098Z,4.90
2017-11-19T20:19:51.537Z,4.90
2017-11-19T20:22:18.956Z,4.90
2017-11-19T20:24:46.416Z,4.90
2017-11-19T20:27:13.849Z,4.90
2017-11-19T20:29:41.666Z,4.90
2017-11-19T20:32:09.105Z,4.90
2017-11-19T20:34:36.530Z,4.90
2017-11-19T20:37:03.977Z,4.90
2017-11-19T20:39:31.817Z,4.90
2017-11-19T20:41:59.236Z,4.90
2017-11-19T20:44:26.653Z,4.90
2017-11-19T20:46:54.189Z,4.90
2017-11-19T20:49:21.604Z,4.80
2017-11-19T20:51:49.034Z,4.80
2017-11-19T20:54:16.476Z,4.80
2017-11-19T20:56:43.903Z,4.80
2017-11-19T20:59:11.324Z,4.70
2017-11-19T21:01:38.974Z,4.70
2017-11-19T21:04:06.409Z,4.60
2017-11-19T21:06:33.837Z,4.60
2017-11-19T21:09:01.669Z,4.50
2017-11-19T21:11:29.205Z,4.50
2017-11-19T21:13:56.667Z,4.50
2017-11-19T21:16:24.098Z,4.50
2017-11-19T21:18:51.529Z,4.50
2017-11-19T21:21:19.357Z,4.50
2017-11-19T21:23:46.783Z,4.50
2017-11-19T21:26:14.210Z,4.50
2017-11-19T21:28:41.694Z,4.50
2017-11-19T21:31:09.107Z,4.40
2017-11-19T21:33:36.938Z,4.40
2017-11-19T21:36:04.685Z,4.40
2017-11-19T21:38:32.113Z,4.40
2017-11-19T21:40:59.543Z,4.20
2017-11-19T21:43:27.398Z,4.10
2017-11-19T21:45:54.821Z,4.10
2017-11-19T21:48:22.248Z,4.10
2017-11-19T21:50:49.685Z,4.20
2017-11-19T21:53:17.514Z,4.40
2017-11-19T21:55:44.948Z,4.40
2017-11-19T21:58:12.394Z,4.50
2017-11-19T22:00:39.826Z,4.40
2017-11-19T22:03:07.509Z,4.60
2017-11-19T22:05:34.933Z,4.50
2017-11-19T22:08:02.372Z,4.40
2017-11-19T22:10:30.215Z,4.40
2017-11-19T22:12:57.637Z,4.40
2017-11-19T22:15:25.067Z,4.60
2017-11-19T22:17:52.550Z,4.70
2017-11-19T22:20:20.209Z,4.80
2017-11-19T22:22:47.632Z,4.90
2017-11-19T22:25:15.053Z,4.80
2017-11-19T22:27:42.590Z,4.70
2017-11-19T22:30:10.333Z,4.50
2017-11-19T22:32:37.752Z,4.60
2017-11-19T22:35:05.181Z,4.60
2017-11-19T22:37:32.615Z,4.60
2017-11-19T22:40:00.045Z,4.60
2017-11-19T22:42:27.469Z,4.50
2017-11-19T22:44:55.002Z,4.50
2017-11-19T22:47:22.425Z,4.50
2017-11-19T22:49:49.863Z,4.50
2017-11-19T22:52:17.319Z,4.50
2017-11-19T22:54:44.739Z,4.50
2017-11-19T22:57:12.559Z,4.60
2017-11-19T22:59:40.020Z,4.60
2017-11-19T23:02:07.444Z,4.50
2017-11-19T23:04:34.869Z,4.60
2017-11-19T23:07:03.113Z,4.70
2017-11-19T23:09:30.533Z,4.70
2017-11-19T23:11:57.953Z,4.80
2017-11-19T23:14:25.775Z,4.90
2017-11-19T23:16:53.221Z,4.90
2017-11-19T23:19:20.641Z,5.00
2017-11-19T23:21:48.058Z,5.00
2017-11-19T23:24:15.506Z,5.10
2017-11-19T23:26:42.941Z,5.20
2017-11-19T23:29:10.359Z,5.20
2017-11-19T23:31:38.097Z,5.30
2017-11-19T23:34:05.918Z,5.30
2017-11-19T23:36:33.338Z,5.30
2017-11-19T23:39:01.121Z,5.20
2017-11-19T23:41:28.542Z,5.20
2017-11-19T23:43:55.965Z,5.10
2017-11-19T23:46:23.405Z,5.10
2017-11-19T23:48:50.829Z,5.00
2017-11-19T23:51:18.269Z,5.00
2017-11-19T23:53:45.697Z,5.00
2017-11-19T23:56:13.512Z,5.00
2017-11-19T23:58:40.938Z,5.00
